This is the latest recevied weather packets stored in our database for station/object KE6YLF. If no packets are shown the sender has not sent any weather packets the latest 10 day(s).
| Time | Temp. | Humidity | Pressure | Rain* | Wind** | Luminosity | Snow |
|---|---|---|---|---|---|---|---|
| 1788632216 | 36.11° C | 31% | 1078.3 hPa | 0 mm | - | - | - |
| 1788631915 | 36.67° C | 30% | 1078.4 hPa | 0 mm | - | - | - |
| 1788631609 | 36.67° C | 30% | 1078.4 hPa | 0 mm | - | - | - |
| 1788631305 | 36.11° C | 31% | 1078.5 hPa | 0 mm | - | - | - |
| 1788631003 | 34.44° C | 33% | 1078.3 hPa | 0 mm | - | - | - |
| 1788630699 | 35° C | 33% | 1078.5 hPa | 0 mm | - | - | - |
| 1788630395 | 36.67° C | 30% | 1078.7 hPa | 0 mm | - | - | - |
| 1788630090 | 36.11° C | 31% | 1078.5 hPa | 0 mm | - | - | - |
| 1788629786 | 35.56° C | 31% | 1078.6 hPa | 0 mm | - | - | - |
| 1788629482 | 35° C | 33% | 1078.6 hPa | 0 mm | - | - | - |
| 1788629181 | 34.44° C | 33% | 1078.6 hPa | 0 mm | - | - | - |
| 1788628876 | 35.56° C | 31% | 1078.6 hPa | 0 mm | - | - | - |
| 1788628572 | 35° C | 32% | 1078.6 hPa | 0 mm | - | - | - |
| 1788628268 | 35° C | 33% | 1078.6 hPa | 0 mm | - | - | - |
| 1788627964 | 35° C | 33% | 1078.5 hPa | 0 mm | - | - | - |
| 1788627660 | 35° C | 33% | 1078.3 hPa | 0 mm | - | - | - |
| 1788627359 | 33.89° C | 35% | 1078.5 hPa | 0 mm | - | - | - |
| 1788627054 | 33.89° C | 34% | 1078.4 hPa | 0 mm | - | - | - |
| 1788626750 | 33.33° C | 35% | 1078.5 hPa | 0 mm | - | - | - |
| 1788626449 | 33.33° C | 35% | 1078.4 hPa | 0 mm | - | - | - |
| 1788626146 | 32.78° C | 35% | 1078.6 hPa | 0 mm | - | - | - |
| 1788625842 | 33.33° C | 35% | 1078.5 hPa | 0 mm | - | - | - |
| 1788625538 | 32.22° C | 36% | 1078.5 hPa | 0 mm | - | - | - |
| 1788625232 | 32.78° C | 36% | 1078.5 hPa | 0 mm | - | - | - |
| 1788624932 | 32.78° C | 36% | 1078.5 hPa | 0 mm | - | - | - |
* Rain latest hour (hover to see other rain measurements)
** Current wind speed in m/s (hover to see current wind gust speed)